Florence, MS (39073)

01:21 AM CDT die 22o October, anno 2014 (GMT -0500)
Florence | Change Station
CLOSE
Current Station
Personal Weather Stations
Location: FLORENCE, MS
Elevation: 367 ft
Nearby Weather Stations

Elev 367 ft 32.18 °N, 90.11 °W | Updated 12 minutes ago

Serena
Serena
55.4 °F
Feels Like 55.4 °F
N
0.0
Ventus Variabilis Ventus from Aquilo

Hodie
High -- | Low -- °F
--% Chance of Precip.
Yesterday
High -- | Low -- °F
Precip. -- in
7:09 AM 6:20 PM
Waning Crescent, 3% visible
Pressio 30.07 in
Visibilitas 10.0 milia passuum
Clouds Serena
Frigus in quo Ros apparet 55 °F
Umor 99%
Rainfall 0.00 in
Snow Depth Not available.
UV 0 out of 12
Pollen 3.70 out of 12
Air Quality Not available.
Flu Activity No Activity
METAR KJAN 220554Z AUTO 00000KT 10SM CLR 13/12 A3008 RMK AO2 SLP183 T01330122 10206 20122 402670089 53005

More Conditions Fewer Conditions

Pressio 30.07 in
Visibilitas 10.0 milia passuum
Clouds Serena
Frigus in quo Ros apparet 55 °F
Umor 99%
Rainfall 0.00 in
Snow Depth Not available.
UV 0 out of 12
Pollen 3.70 out of 12
Air Quality Not available.
Flu Activity No Activity
METAR KJAN 220554Z AUTO 00000KT 10SM CLR 13/12 A3008 RMK AO2 SLP183 T01330122 10206 20122 402670089 53005

More Conditions Fewer Conditions

10-Day Weather Forecast

Almanac

Astronomy

Oct. 22, 2014 Rise Set
Actual Time 7:09 AM CDT 6:20 PM CDT
Civil Twilight 6:44 AM CDT 6:45 PM CDT
Nautical Twilight 6:15 AM CDT 7:13 PM CDT
Astronomical Twilight 5:47 AM CDT 7:42 PM CDT
Moon 5:55 AM CDT 5:43 PM CDT
Length Of Visible Light 12h 00m
Length of Day
11h 10m
Tomorrow will be 1m 49s shorter.
Waning Crescent, 3% of the Moon is Illuminated
Hodie
Waning Crescent
Oct 23
New
Oct 30
First Quarter
Nov 6
Full
Nov 14
Last Quarter

Today's Extremes

State Highs State Lows

Community

WunderPhotos

Upload Photos

1,763,885 photos uploaded!

Nearby

Snow Depth

Station Depth Elevation
No new snow has been reported.

Earthquake Activity

City Distance Mag. Time & Date
No recent earthquake activity has been reported nearby.
Minimum magnitude displayed is 2.5.

Coastal Water Temperatures

Locus Calor
No Stations Reporting

Nearby Weather Stations